Terminal Aerodrome Forecast
Issued by NWS

Home | Current Version | Previous Version | Text Only | Print | Product List | Glossary On
Versions: 1 2 3 4 5 6 7 8 9 10 11 12 13 14 15 16 17 18 19 20 21 22 23 24 25 26 27 28 29 30 31 32 33 34 35 36 37 38 39 40 41 42 43 44 45 46 47 48 49 50
446
FTUS41 KCTP 080528
TAFBFD
TAF
KBFD 080528Z 0806/0906 13004KT P6SM BKN120
     FM081000 17008KT P6SM BKN090 OVC150
     FM081900 14008KT P6SM VCSH OVC040
     FM082200 14008KT 6SM -SN OVC025
     FM090100 16005KT 2SM -SN BR OVC010=

USA.gov is the U.S. government's official web portal to all federal, state and local government web resources and services.